createdAt,value
2019-02-04T00:00:43.054Z,3.03
2019-02-04T00:03:17.080Z,4.40
2019-02-04T00:05:45.356Z,5.50
2019-02-04T00:08:13.642Z,6.58
2019-02-04T00:10:42.545Z,10.35
2019-02-04T00:13:10.804Z,7.67
2019-02-04T00:15:39.136Z,5.90
2019-02-04T00:18:07.537Z,7.10
2019-02-04T00:20:35.790Z,15.48
2019-02-04T00:23:04.119Z,11.97
2019-02-04T00:25:32.510Z,7.50
2019-02-04T00:28:00.795Z,14.67
2019-02-04T00:30:29.092Z,5.40
2019-02-04T00:32:57.352Z,6.47
2019-02-04T00:35:25.631Z,2.87
2019-02-04T00:37:53.944Z,9.08
2019-02-04T00:40:26.722Z,5.97
2019-02-04T00:42:54.989Z,13.78
2019-02-04T00:45:23.314Z,6.83
2019-02-04T00:47:51.620Z,7.33
2019-02-04T00:50:21.055Z,7.83
2019-02-04T00:52:49.313Z,4.83
2019-02-04T00:55:17.669Z,10.98
2019-02-04T00:57:45.888Z,8.53
2019-02-04T01:00:22.767Z,12.53
2019-02-04T01:02:51.219Z,13.20
2019-02-04T01:05:19.965Z,9.65
2019-02-04T01:07:48.849Z,6.92
2019-02-04T01:10:20.378Z,7.60
2019-02-04T01:12:48.700Z,7.00
2019-02-04T01:15:16.946Z,7.10
2019-02-04T01:17:45.253Z,15.83
2019-02-04T01:20:16.776Z,7.95
2019-02-04T01:22:45.188Z,7.87
2019-02-04T01:25:13.735Z,10.53
2019-02-04T01:27:41.989Z,7.72
2019-02-04T01:30:13.513Z,8.35
2019-02-04T01:32:41.783Z,9.93
2019-02-04T01:35:10.068Z,7.62
2019-02-04T01:37:38.405Z,7.75
2019-02-04T01:40:10.152Z,4.08
2019-02-04T01:42:38.445Z,8.20
2019-02-04T01:45:07.951Z,8.90
2019-02-04T01:47:36.279Z,10.40
2019-02-04T01:50:07.649Z,9.80
2019-02-04T01:52:36.116Z,10.40
2019-02-04T01:55:06.925Z,6.67
2019-02-04T01:57:35.213Z,6.50
2019-02-04T02:00:05.279Z,5.22
2019-02-04T02:02:33.594Z,6.25
2019-02-04T02:05:01.898Z,3.20
2019-02-04T02:07:30.637Z,3.80
2019-02-04T02:09:58.964Z,11.18
2019-02-04T02:12:27.230Z,6.30
2019-02-04T02:14:55.479Z,6.08
2019-02-04T02:17:26.431Z,7.28
2019-02-04T02:19:53.824Z,9.70
2019-02-04T02:22:22.388Z,3.47
2019-02-04T02:24:50.755Z,6.65
2019-02-04T02:27:19.009Z,6.00
2019-02-04T02:29:47.356Z,5.22
2019-02-04T02:32:15.659Z,11.00
2019-02-04T02:34:43.922Z,6.97
2019-02-04T02:37:12.709Z,11.35
2019-02-04T02:39:41.005Z,7.83
2019-02-04T02:42:09.256Z,7.90
2019-02-04T02:44:37.648Z,7.58
2019-02-04T02:47:05.908Z,8.00
2019-02-04T02:49:34.245Z,8.00
2019-02-04T02:52:02.688Z,9.33
2019-02-04T02:54:31.223Z,7.12
2019-02-04T02:56:59.533Z,9.00
2019-02-04T02:59:27.818Z,6.00
2019-02-04T03:01:56.111Z,7.83
2019-02-04T03:04:24.414Z,31.62
2019-02-04T03:06:52.721Z,8.60
2019-02-04T03:09:21.254Z,10.38
2019-02-04T03:11:49.596Z,11.75
2019-02-04T03:14:17.881Z,8.05
2019-02-04T03:16:46.138Z,9.70
2019-02-04T03:19:14.431Z,10.72
2019-02-04T03:21:42.699Z,7.03
2019-02-04T03:24:11.088Z,7.65
2019-02-04T03:26:39.394Z,13.30
2019-02-04T03:29:07.700Z,12.30
2019-02-04T03:31:39.312Z,12.13
2019-02-04T03:34:06.144Z,7.72
2019-02-04T03:36:34.430Z,14.13
2019-02-04T03:39:02.881Z,10.90
2019-02-04T03:41:31.156Z,20.10
2019-02-04T03:43:59.478Z,16.35
2019-02-04T03:46:27.776Z,8.78
2019-02-04T03:48:56.091Z,13.32
2019-02-04T03:51:24.368Z,9.85
2019-02-04T03:53:52.621Z,14.13
2019-02-04T03:56:21.047Z,14.63
2019-02-04T03:58:49.290Z,12.45
2019-02-04T04:01:17.605Z,9.80
2019-02-04T04:03:46.032Z,14.05
2019-02-04T04:06:14.331Z,14.90
2019-02-04T04:08:42.683Z,10.38
2019-02-04T04:11:11.136Z,12.85
2019-02-04T04:13:39.394Z,16.60
2019-02-04T04:16:07.755Z,13.10
2019-02-04T04:18:36.019Z,18.92
2019-02-04T04:21:04.336Z,12.15
2019-02-04T04:23:32.639Z,23.75
2019-02-04T04:26:01.290Z,16.80
2019-02-04T04:28:29.543Z,18.62
2019-02-04T04:30:57.834Z,21.17
2019-02-04T04:33:26.109Z,14.35
2019-02-04T04:35:54.429Z,12.68
2019-02-04T04:38:22.714Z,12.80
2019-02-04T04:40:51.133Z,12.80
2019-02-04T04:43:19.394Z,13.20
2019-02-04T04:45:47.646Z,14.60
2019-02-04T04:48:26.048Z,15.00
2019-02-04T04:50:46.013Z,13.20
2019-02-04T04:53:14.272Z,9.05
2019-02-04T04:55:42.558Z,10.35
2019-02-04T04:58:10.825Z,13.47
2019-02-04T05:00:39.139Z,16.97
2019-02-04T05:03:07.398Z,15.27
2019-02-04T05:05:35.726Z,14.70
2019-02-04T05:08:04.027Z,20.50
2019-02-04T05:10:32.292Z,10.95
2019-02-04T05:13:01.078Z,12.50
2019-02-04T05:15:29.412Z,14.05
2019-02-04T05:17:59.302Z,14.35
2019-02-04T05:20:27.732Z,13.27
2019-02-04T05:22:56.062Z,18.83
2019-02-04T05:25:24.322Z,14.37
2019-02-04T05:27:53.082Z,17.20
2019-02-04T05:30:23.431Z,11.73
2019-02-04T05:32:51.684Z,13.48
2019-02-04T05:35:20.087Z,14.45
2019-02-04T05:37:48.351Z,22.30
2019-02-04T05:40:17.582Z,21.07
2019-02-04T05:42:46.319Z,9.65
2019-02-04T05:45:16.617Z,13.33
2019-02-04T05:47:44.999Z,16.23
2019-02-04T05:50:17.254Z,23.55
2019-02-04T05:52:45.129Z,16.48
2019-02-04T05:55:14.180Z,12.80
2019-02-04T05:57:42.633Z,20.87
2019-02-04T06:00:13.905Z,10.75
2019-02-04T06:02:42.250Z,14.25
2019-02-04T06:05:12.244Z,11.25
2019-02-04T06:07:40.504Z,13.18
2019-02-04T06:10:10.582Z,13.60
2019-02-04T06:12:38.836Z,13.30
2019-02-04T06:15:10.633Z,14.13
2019-02-04T06:17:39.034Z,11.20
2019-02-04T06:20:10.531Z,19.67
2019-02-04T06:22:38.910Z,12.33
2019-02-04T06:25:07.527Z,12.93
2019-02-04T06:27:35.850Z,12.60
2019-02-04T06:30:05.570Z,14.87
2019-02-04T06:32:34.637Z,13.53
2019-02-04T06:35:03.216Z,17.07
2019-02-04T06:37:31.469Z,12.33
2019-02-04T06:39:59.788Z,14.78
2019-02-04T06:42:28.081Z,15.23
2019-02-04T06:44:56.367Z,18.48
2019-02-04T06:47:24.622Z,15.20
2019-02-04T06:49:53.039Z,15.70
2019-02-04T06:52:21.356Z,14.53
2019-02-04T06:54:49.638Z,19.32
2019-02-04T06:57:18.386Z,13.95
2019-02-04T06:59:46.662Z,17.00
2019-02-04T07:02:14.916Z,15.40
2019-02-04T07:04:43.204Z,20.23
2019-02-04T07:07:11.471Z,13.10
2019-02-04T07:09:39.820Z,13.35
2019-02-04T07:12:08.568Z,16.97
2019-02-04T07:14:36.988Z,13.95
2019-02-04T07:17:05.244Z,19.48
2019-02-04T07:19:33.523Z,15.63
2019-02-04T07:22:01.821Z,16.07
2019-02-04T07:24:30.083Z,15.10
2019-02-04T07:26:58.566Z,15.00
2019-02-04T07:29:27.302Z,10.32
2019-02-04T07:31:55.566Z,14.63
2019-02-04T07:34:23.881Z,16.57
2019-02-04T07:36:52.136Z,14.03
2019-02-04T07:39:20.467Z,12.70
2019-02-04T07:41:48.735Z,13.57
2019-02-04T07:44:17.043Z,15.98
2019-02-04T07:46:45.343Z,16.17
2019-02-04T07:49:14.070Z,13.35
2019-02-04T07:51:42.363Z,10.63
2019-02-04T07:54:10.635Z,15.55
2019-02-04T07:56:38.960Z,14.33
2019-02-04T07:59:07.213Z,14.85
2019-02-04T08:01:35.781Z,13.90
2019-02-04T08:04:04.415Z,17.07
2019-02-04T08:06:32.682Z,14.23
2019-02-04T08:09:00.961Z,19.07
2019-02-04T08:11:29.293Z,23.27
2019-02-04T08:13:57.661Z,16.47
2019-02-04T08:16:26.404Z,24.17
2019-02-04T08:18:54.678Z,14.47
2019-02-04T08:21:23.071Z,14.13
2019-02-04T08:23:51.329Z,11.80
2019-02-04T08:26:19.578Z,13.30
2019-02-04T08:28:47.870Z,15.30
2019-02-04T08:31:16.153Z,15.40
2019-02-04T08:33:44.505Z,12.60
2019-02-04T08:36:12.774Z,18.90
2019-02-04T08:38:41.045Z,19.20
2019-02-04T08:41:09.329Z,13.67
2019-02-04T08:43:37.601Z,14.77
2019-02-04T08:46:05.865Z,8.73
2019-02-04T08:48:34.129Z,23.70
2019-02-04T08:51:02.432Z,14.10
2019-02-04T08:53:30.690Z,13.03
2019-02-04T08:55:58.939Z,15.63
2019-02-04T08:58:27.224Z,27.53
2019-02-04T09:00:55.519Z,12.83
2019-02-04T09:03:23.829Z,16.03
2019-02-04T09:05:52.073Z,12.20
2019-02-04T09:08:20.422Z,26.17
2019-02-04T09:10:48.686Z,13.23
2019-02-04T09:13:17.088Z,15.87
2019-02-04T09:15:45.435Z,12.17
2019-02-04T09:18:13.694Z,16.13
2019-02-04T09:20:41.994Z,16.17
2019-02-04T09:23:10.379Z,16.57
2019-02-04T09:25:38.752Z,18.73
2019-02-04T09:28:07.039Z,23.10
2019-02-04T09:30:35.354Z,14.03
2019-02-04T09:33:03.882Z,22.37
2019-02-04T09:35:32.156Z,14.50
2019-02-04T09:38:05.961Z,13.60
2019-02-04T09:40:37.289Z,13.40
2019-02-04T09:43:05.796Z,18.17
2019-02-04T09:45:34.053Z,18.80
2019-02-04T09:48:05.840Z,16.10
2019-02-04T09:50:38.103Z,17.90
2019-02-04T09:53:06.892Z,18.03
2019-02-04T09:55:40.956Z,15.97
2019-02-04T09:58:12.844Z,15.20
2019-02-04T10:00:41.184Z,18.37
2019-02-04T10:03:09.617Z,15.10
2019-02-04T10:05:38.404Z,12.77
2019-02-04T10:08:07.617Z,15.27
2019-02-04T10:10:35.871Z,13.10
2019-02-04T10:13:05.146Z,11.67
2019-02-04T10:15:38.543Z,12.50
2019-02-04T10:18:07.776Z,20.00
2019-02-04T10:20:36.408Z,11.80
2019-02-04T10:23:05.594Z,11.80
2019-02-04T10:25:42.823Z,13.43
2019-02-04T10:28:13.124Z,14.30
2019-02-04T10:30:41.458Z,13.03
2019-02-04T10:33:09.799Z,14.80
2019-02-04T10:35:38.154Z,12.40
2019-02-04T10:38:06.635Z,10.53
2019-02-04T10:40:34.976Z,13.00
2019-02-04T10:43:03.293Z,11.37
2019-02-04T10:45:31.739Z,9.60
2019-02-04T10:47:59.962Z,13.43
2019-02-04T10:50:30.738Z,9.13
2019-02-04T10:52:59.142Z,10.83
2019-02-04T10:55:27.445Z,12.40
2019-02-04T10:57:55.832Z,7.20
2019-02-04T11:00:38.409Z,7.90
2019-02-04T11:03:07.079Z,12.33
2019-02-04T11:05:37.540Z,9.67
2019-02-04T11:08:07.120Z,9.30
2019-02-04T11:10:36.301Z,10.53
2019-02-04T11:13:10.721Z,11.80
2019-02-04T11:15:39.340Z,6.70
2019-02-04T11:18:07.982Z,10.70
2019-02-04T11:20:36.594Z,9.73
2019-02-04T11:23:10.839Z,13.60
2019-02-04T11:25:38.595Z,9.03
2019-02-04T11:28:08.027Z,7.63
2019-02-04T11:30:48.794Z,10.10
2019-02-04T11:33:18.947Z,7.10
2019-02-04T11:35:51.164Z,7.27
2019-02-04T11:38:19.309Z,7.97
2019-02-04T11:40:47.593Z,5.90
2019-02-04T11:43:20.591Z,8.03
2019-02-04T11:45:55.003Z,6.83
2019-02-04T11:48:26.029Z,8.27
2019-02-04T11:50:53.506Z,11.20
2019-02-04T11:53:32.520Z,6.67
2019-02-04T11:55:56.140Z,8.20
2019-02-04T11:58:33.544Z,6.57
2019-02-04T12:01:03.682Z,11.60
2019-02-04T12:03:37.681Z,12.27
2019-02-04T12:06:05.326Z,7.47
2019-02-04T12:08:33.835Z,6.13
2019-02-04T12:11:04.486Z,9.87
2019-02-04T12:13:32.787Z,8.40
2019-02-04T12:16:01.198Z,6.40
2019-02-04T12:18:29.628Z,6.77
2019-02-04T12:20:58.066Z,6.97
2019-02-04T12:23:31.768Z,6.90
2019-02-04T12:26:01.542Z,13.40
2019-02-04T12:28:31.575Z,10.60
2019-02-04T12:31:00.231Z,8.10
2019-02-04T12:33:35.361Z,6.00
2019-02-04T12:36:13.348Z,7.17
2019-02-04T12:38:37.239Z,10.87
2019-02-04T12:41:22.007Z,13.17
2019-02-04T12:44:45.941Z,7.80
2019-02-04T12:46:27.018Z,6.63
2019-02-04T12:48:54.252Z,9.57
2019-02-04T12:51:33.169Z,9.23
2019-02-04T12:53:56.514Z,13.27
2019-02-04T12:56:27.982Z,9.17
2019-02-04T12:58:58.365Z,9.53
2019-02-04T13:01:26.713Z,6.73
2019-02-04T13:04:01.037Z,8.93
2019-02-04T13:06:37.087Z,7.70
2019-02-04T13:09:02.956Z,8.77
2019-02-04T13:11:34.675Z,8.23
2019-02-04T13:14:03.056Z,7.00
2019-02-04T13:16:31.477Z,10.10
2019-02-04T13:19:00.084Z,7.70
2019-02-04T13:21:28.566Z,6.53
2019-02-04T13:23:56.928Z,8.57
2019-02-04T13:26:25.697Z,5.40
2019-02-04T13:28:54.008Z,9.57
2019-02-04T13:31:22.432Z,7.00
2019-02-04T13:33:50.734Z,7.83
2019-02-04T13:36:19.204Z,7.60
2019-02-04T13:38:47.654Z,6.90
2019-02-04T13:41:16.042Z,8.17
2019-02-04T13:43:44.503Z,8.60
2019-02-04T13:46:12.761Z,6.13
2019-02-04T13:48:41.185Z,7.10
2019-02-04T13:51:09.754Z,6.97
2019-02-04T13:53:38.047Z,5.30
2019-02-04T13:56:06.493Z,8.00
2019-02-04T13:58:34.977Z,6.93
2019-02-04T14:01:04.755Z,7.30
2019-02-04T14:03:33.115Z,5.97
2019-02-04T14:06:01.651Z,10.23
2019-02-04T14:08:30.075Z,10.63
2019-02-04T14:10:58.465Z,7.40
2019-02-04T14:13:26.885Z,7.43
2019-02-04T14:15:55.252Z,7.50
2019-02-04T14:18:26.517Z,9.00
2019-02-04T14:20:53.604Z,5.53
2019-02-04T14:23:21.932Z,6.73
2019-02-04T14:25:50.292Z,8.10
2019-02-04T14:28:18.603Z,8.83
2019-02-04T14:30:47.041Z,7.97
2019-02-04T14:33:15.422Z,12.33
2019-02-04T14:35:43.811Z,10.70
2019-02-04T14:38:12.297Z,9.30
2019-02-04T14:40:40.555Z,7.60
2019-02-04T14:43:12.402Z,5.70
2019-02-04T14:46:14.705Z,11.67
2019-02-04T14:48:49.031Z,6.77
2019-02-04T14:51:23.465Z,4.93
2019-02-04T14:54:11.483Z,6.40
2019-02-04T14:56:57.933Z,5.53
2019-02-04T14:59:27.956Z,7.23
2019-02-04T15:02:08.614Z,8.53
2019-02-04T15:04:46.232Z,5.60
2019-02-04T15:07:49.451Z,8.37
2019-02-04T15:10:33.330Z,8.57
2019-02-04T15:13:11.091Z,6.87
2019-02-04T15:16:08.541Z,6.50
2019-02-04T15:18:42.702Z,6.40
2019-02-04T15:21:20.075Z,9.20
2019-02-04T15:24:08.120Z,6.40
2019-02-04T15:26:33.350Z,7.87
2019-02-04T15:29:10.584Z,7.33
2019-02-04T15:32:03.191Z,5.97
2019-02-04T15:34:43.602Z,7.97
2019-02-04T15:37:24.464Z,7.40
2019-02-04T15:40:01.772Z,5.87
2019-02-04T15:42:55.943Z,13.03
2019-02-04T15:45:55.759Z,8.93
2019-02-04T15:48:27.283Z,7.70
2019-02-04T15:50:58.903Z,8.00
2019-02-04T15:53:50.301Z,7.13
2019-02-04T15:58:45.530Z,7.80
2019-02-04T16:07:52.328Z,16.10
2019-02-04T16:08:12.926Z,6.63
2019-02-04T16:09:52.893Z,9.80
2019-02-04T16:22:57.831Z,7.53
2019-02-04T16:24:12.438Z,7.47
2019-02-04T16:30:06.967Z,7.27
2019-02-04T16:38:05.686Z,5.07
2019-02-04T16:41:21.488Z,9.53
2019-02-04T16:43:30.580Z,4.10
2019-02-04T16:46:00.099Z,3.00
2019-02-04T16:49:18.877Z,5.43
2019-02-04T16:51:11.355Z,5.03
2019-02-04T16:53:51.520Z,4.17
2019-02-04T16:56:15.676Z,3.03
2019-02-04T16:58:49.299Z,6.77
2019-02-04T17:02:52.975Z,6.73
2019-02-04T17:03:51.220Z,3.67
2019-02-04T17:06:25.085Z,5.30
2019-02-04T17:08:55.115Z,4.37
2019-02-04T17:12:11.817Z,9.23
2019-02-04T17:14:04.068Z,8.70
2019-02-04T17:16:34.566Z,4.80
2019-02-04T17:19:09.216Z,4.23
2019-02-04T17:21:41.948Z,3.67
2019-02-04T17:24:09.715Z,3.67
2019-02-04T17:26:43.413Z,6.10
2019-02-04T17:29:14.017Z,3.90
2019-02-04T17:31:44.105Z,3.13
2019-02-04T17:34:15.900Z,6.10
2019-02-04T17:36:46.215Z,5.43
2019-02-04T17:39:20.446Z,4.93
2019-02-04T17:41:54.293Z,4.83
2019-02-04T17:44:24.035Z,3.50
2019-02-04T17:46:57.565Z,3.40
2019-02-04T17:49:27.723Z,5.90
2019-02-04T17:52:06.878Z,2.87
2019-02-04T17:54:36.458Z,4.70
2019-02-04T17:57:18.799Z,6.07
2019-02-04T17:59:47.395Z,7.80
2019-02-04T18:02:15.854Z,6.00
2019-02-04T18:04:47.298Z,10.00
2019-02-04T18:07:15.741Z,7.50
2019-02-04T18:09:45.431Z,9.30
2019-02-04T18:12:19.161Z,5.63
2019-02-04T18:14:47.514Z,5.10
2019-02-04T18:17:23.259Z,5.03
2019-02-04T18:19:56.532Z,8.60
2019-02-04T18:22:27.998Z,5.10
2019-02-04T18:25:23.071Z,6.33
2019-02-04T18:27:50.381Z,5.63
2019-02-04T18:30:23.690Z,6.77
2019-02-04T18:32:51.701Z,7.60
2019-02-04T18:35:21.397Z,5.10
2019-02-04T18:37:50.122Z,6.87
2019-02-04T18:40:20.626Z,21.67
2019-02-04T18:42:49.399Z,6.93
2019-02-04T18:45:21.082Z,5.53
2019-02-04T18:47:49.733Z,7.63
2019-02-04T18:50:19.725Z,7.50
2019-02-04T18:52:48.550Z,6.53
2019-02-04T18:55:19.498Z,9.23
2019-02-04T18:57:47.899Z,10.47
2019-02-04T19:00:18.900Z,3.93
2019-02-04T19:02:47.192Z,7.30
2019-02-04T19:05:15.609Z,5.63
2019-02-04T19:07:44.016Z,6.83
2019-02-04T19:10:22.247Z,5.27
2019-02-04T19:12:50.770Z,5.90
2019-02-04T19:15:21.082Z,6.03
2019-02-04T19:17:49.763Z,6.10
2019-02-04T19:20:21.229Z,11.37
2019-02-04T19:22:49.747Z,7.27
2019-02-04T19:25:19.930Z,11.53
2019-02-04T19:27:52.370Z,8.80
2019-02-04T19:30:33.281Z,8.57
2019-02-04T19:33:01.655Z,6.50
2019-02-04T19:35:30.033Z,8.67
2019-02-04T19:37:58.689Z,7.73
2019-02-04T19:40:27.059Z,4.87
2019-02-04T19:42:55.420Z,7.30
2019-02-04T19:45:25.285Z,10.20
2019-02-04T19:47:53.934Z,11.57
2019-02-04T19:50:31.030Z,9.20
2019-02-04T19:52:59.708Z,9.00
2019-02-04T19:55:28.135Z,8.47
2019-02-04T19:57:56.497Z,9.30
2019-02-04T20:00:24.962Z,11.30
2019-02-04T20:02:54.065Z,13.77
2019-02-04T20:05:27.072Z,12.83
2019-02-04T20:07:55.840Z,8.33
2019-02-04T20:10:27.472Z,9.10
2019-02-04T20:12:55.919Z,11.73
2019-02-04T20:15:26.723Z,7.90
2019-02-04T20:17:55.190Z,12.63
2019-02-04T20:20:23.898Z,6.83
2019-02-04T20:22:52.584Z,8.60
2019-02-04T20:25:24.275Z,7.33
2019-02-04T20:27:52.677Z,9.23
2019-02-04T20:30:44.577Z,7.67
2019-02-04T20:33:03.465Z,8.00
2019-02-04T20:35:31.900Z,14.10
2019-02-04T20:38:00.429Z,9.93
2019-02-04T20:40:28.744Z,6.87
2019-02-04T20:42:57.147Z,12.40
2019-02-04T20:45:25.593Z,12.03
2019-02-04T20:47:53.904Z,8.17
2019-02-04T20:50:28.077Z,10.03
2019-02-04T20:52:56.391Z,9.63
2019-02-04T20:55:24.671Z,8.77
2019-02-04T20:57:53.018Z,12.43
2019-02-04T21:00:23.925Z,15.80
2019-02-04T21:02:52.350Z,7.53
2019-02-04T21:05:20.602Z,10.97
2019-02-04T21:07:48.964Z,13.57
2019-02-04T21:10:26.735Z,10.03
2019-02-04T21:12:56.072Z,11.23
2019-02-04T21:15:24.728Z,11.53
2019-02-04T21:17:53.042Z,11.10
2019-02-04T21:20:23.962Z,9.23
2019-02-04T21:22:52.299Z,12.73
2019-02-04T21:25:20.648Z,9.13
2019-02-04T21:27:49.277Z,10.83
2019-02-04T21:30:31.687Z,9.40
2019-02-04T21:33:00.084Z,8.77
2019-02-04T21:35:28.450Z,12.00
2019-02-04T21:37:56.843Z,9.30
2019-02-04T21:40:25.610Z,11.93
2019-02-04T21:42:53.889Z,8.70
2019-02-04T21:45:23.664Z,11.10
2019-02-04T21:47:52.039Z,10.40
2019-02-04T21:50:22.155Z,13.83
2019-02-04T21:52:50.444Z,10.90
2019-02-04T21:55:18.979Z,11.80
2019-02-04T21:57:47.257Z,12.70
2019-02-04T22:00:24.833Z,10.00
2019-02-04T22:02:53.212Z,12.90
2019-02-04T22:05:26.591Z,13.30
2019-02-04T22:07:54.873Z,11.10
2019-02-04T22:10:25.020Z,10.87
2019-02-04T22:12:53.320Z,11.80
2019-02-04T22:15:22.240Z,10.33
2019-02-04T22:17:50.616Z,16.90
2019-02-04T22:20:20.100Z,20.83
2019-02-04T22:22:48.482Z,10.27
2019-02-04T22:25:19.934Z,16.40
2019-02-04T22:27:48.534Z,12.73
2019-02-04T22:30:18.843Z,14.97
2019-02-04T22:32:47.627Z,12.80
2019-02-04T22:35:17.598Z,12.97
2019-02-04T22:37:45.924Z,15.53
2019-02-04T22:40:23.375Z,13.97
2019-02-04T22:42:51.809Z,15.40
2019-02-04T22:45:20.259Z,20.07
2019-02-04T22:47:48.563Z,15.40
2019-02-04T22:50:24.721Z,11.47
2019-02-04T22:52:53.055Z,14.77
2019-02-04T22:55:31.541Z,18.20
2019-02-04T22:57:51.421Z,16.60
2019-02-04T23:00:51.698Z,18.10
2019-02-04T23:03:26.228Z,15.93
2019-02-04T23:05:54.568Z,18.97
2019-02-04T23:08:22.917Z,16.97
2019-02-04T23:10:51.187Z,22.93
2019-02-04T23:13:19.496Z,19.50
2019-02-04T23:15:47.789Z,18.17
2019-02-04T23:18:16.059Z,17.57
2019-02-04T23:20:45.120Z,19.67
2019-02-04T23:23:13.457Z,20.27
2019-02-04T23:25:43.593Z,18.37
2019-02-04T23:28:11.769Z,20.03
2019-02-04T23:30:40.132Z,24.13
2019-02-04T23:33:08.538Z,19.57
2019-02-04T23:35:36.867Z,21.53
2019-02-04T23:38:05.571Z,20.60
2019-02-04T23:40:33.921Z,16.33
2019-02-04T23:43:02.225Z,18.27
2019-02-04T23:45:30.620Z,21.17
2019-02-04T23:47:59.457Z,18.27
2019-02-04T23:50:28.092Z,17.30
2019-02-04T23:52:56.432Z,19.23
2019-02-04T23:55:24.726Z,20.60
2019-02-04T23:57:52.997Z,19.17
